Time;durP1;ratioP1;P1;durP2;ratioP2;P2;SDS_P1;SDS_P2;PMS_P1;PMS_P2;Temp;Humidity;BMP_temperature;BMP_pressure;BME280_temperature;BME280_humidity;BME280_pressure;Samples;Min_cycle;Max_cycle;Signal;HPM_P1;HPM_P2
2022/11/29 00:01:08;;;;;;;68.22;11.07;;;7.90;99.90;;;;;;5105516;28;20044;-90
2022/11/29 00:03:36;;;;;;;73.28;11.15;;;7.80;99.90;;;;;;5090254;28;20106;-90
2022/11/29 00:06:04;;;;;;;78.93;11.70;;;7.60;99.90;;;;;;5057915;28;20131;-90
2022/11/29 00:08:31;;;;;;;66.80;11.05;;;7.80;99.90;;;;;;5090071;28;20036;-90
2022/11/29 00:11:06;;;;;;;62.17;10.43;;;7.80;99.90;;;;;;5061310;28;20043;-90
2022/11/29 00:13:33;;;;;;;83.20;12.10;;;7.80;99.90;;;;;;5094648;28;20048;-90
2022/11/29 00:16:14;;;;;;;84.55;12.23;;;7.80;99.90;;;;;;5078160;28;20377;-89
2022/11/29 00:18:41;;;;;;;92.05;11.82;;;7.80;99.90;;;;;;5078103;28;20040;-90
2022/11/29 00:21:07;;;;;;;95.43;12.05;;;7.80;99.90;;;;;;5061741;28;20051;-89
2022/11/29 00:23:35;;;;;;;52.05;11.32;;;7.80;99.90;;;;;;5077646;28;20080;-89
2022/11/29 00:26:06;;;;;;;74.63;12.52;;;7.80;99.90;;;;;;5077656;28;20507;-90
2022/11/29 00:28:35;;;;;;;94.90;12.65;;;7.90;99.90;;;;;;5093987;28;20044;-90
2022/11/29 00:31:22;;;;;;;63.95;11.05;;;7.80;99.90;;;;;;5062130;28;20576;-89
2022/11/29 00:33:49;;;;;;;99.63;12.30;;;7.90;99.90;;;;;;5094267;28;20099;-89
2022/11/29 00:36:16;;;;;;;106.38;11.88;;;7.90;99.90;;;;;;5094111;28;20044;-90
2022/11/29 00:38:43;;;;;;;104.68;12.25;;;7.80;99.90;;;;;;5093793;28;20048;-90
2022/11/29 00:41:10;;;;;;;105.53;11.77;;;7.80;99.90;;;;;;5094216;28;20094;-90
2022/11/29 00:43:37;;;;;;;62.45;11.20;;;7.80;99.90;;;;;;5074654;28;20038;-90
2022/11/29 00:46:04;;;;;;;79.63;12.55;;;7.80;99.90;;;;;;5093972;28;20769;-89
2022/11/29 00:48:31;;;;;;;68.80;11.75;;;7.80;99.90;;;;;;5093450;28;20123;-89
2022/11/29 00:50:58;;;;;;;77.85;11.40;;;8.00;99.90;;;;;;5077153;28;20119;-90
2022/11/29 00:53:25;;;;;;;57.60;11.02;;;7.80;99.90;;;;;;5094289;28;20173;-89
2022/11/29 00:55:52;;;;;;;67.03;11.90;;;7.80;99.90;;;;;;5097250;28;20056;-89
2022/11/29 00:58:19;;;;;;;60.53;10.60;;;7.80;99.90;;;;;;5097545;28;20488;-89
2022/11/29 01:00:46;;;;;;;69.68;11.30;;;7.80;99.90;;;;;;5097044;28;20050;-89
2022/11/29 01:03:15;;;;;;;70.05;10.63;;;7.80;99.90;;;;;;5114061;28;20032;-90
2022/11/29 01:05:42;;;;;;;52.33;9.52;;;7.80;99.90;;;;;;5097078;28;20480;-90
2022/11/29 01:08:10;;;;;;;68.22;11.18;;;7.80;99.90;;;;;;5064713;28;20028;-90
2022/11/29 01:10:36;;;;;;;49.30;9.38;;;7.80;99.90;;;;;;5080721;28;20082;-89
2022/11/29 01:13:03;;;;;;;62.30;10.20;;;7.80;99.90;;;;;;5097370;28;20071;-89
2022/11/29 01:15:30;;;;;;;49.58;9.85;;;7.80;99.90;;;;;;5080375;28;20127;-89
2022/11/29 01:17:57;;;;;;;55.47;10.10;;;7.70;99.90;;;;;;5096880;28;20094;-89
2022/11/29 01:20:24;;;;;;;57.40;9.93;;;7.70;99.90;;;;;;5079446;28;20044;-85
2022/11/29 01:22:51;;;;;;;84.07;11.15;;;7.80;99.90;;;;;;5096269;28;20094;-90
2022/11/29 01:25:18;;;;;;;86.72;11.82;;;7.70;99.90;;;;;;5113316;28;20040;-89
2022/11/29 01:27:46;;;;;;;55.35;10.23;;;7.70;99.90;;;;;;5096395;28;20051;-88
2022/11/29 01:30:13;;;;;;;119.35;12.15;;;7.70;99.90;;;;;;5076597;28;20040;-90
2022/11/29 01:32:39;;;;;;;82.65;11.90;;;7.70;99.90;;;;;;5076398;28;20075;-89
2022/11/29 01:35:07;;;;;;;179.00;13.68;;;7.70;99.90;;;;;;5060046;28;20086;-89
2022/11/29 01:37:34;;;;;;;107.10;11.82;;;7.70;99.90;;;;;;5109638;28;20052;-89
2022/11/29 01:40:00;;;;;;;145.70;13.68;;;7.70;99.90;;;;;;5092758;28;20040;-89
2022/11/29 01:42:27;;;;;;;75.75;11.18;;;7.70;99.90;;;;;;5092824;28;20115;-88
2022/11/29 01:45:19;;;;;;;121.40;12.38;;;7.70;99.90;;;;;;5059821;28;20182;-89
2022/11/29 01:47:48;;;;;;;100.72;11.88;;;7.70;99.90;;;;;;5092824;28;20125;-89
2022/11/29 01:50:15;;;;;;;69.22;11.25;;;7.70;99.90;;;;;;5092296;28;20055;-89
2022/11/29 01:52:42;;;;;;;92.07;11.85;;;7.70;99.90;;;;;;5092356;28;20036;-89
2022/11/29 01:55:11;;;;;;;112.90;11.95;;;7.70;99.90;;;;;;5060140;28;20037;-88
2022/11/29 01:57:39;;;;;;;91.43;11.68;;;7.70;99.90;;;;;;5092261;28;20141;-90
2022/11/29 02:00:11;;;;;;;163.23;13.73;;;7.70;99.90;;;;;;5096120;28;20082;-89
2022/11/29 02:02:43;;;;;;;93.55;10.95;;;7.70;99.90;;;;;;5095800;28;20046;-89
2022/11/29 02:05:12;;;;;;;156.70;12.45;;;7.70;99.90;;;;;;5095975;28;20032;-89
2022/11/29 02:07:42;;;;;;;143.20;13.02;;;7.70;99.90;;;;;;5095710;28;20851;-87
2022/11/29 02:10:09;;;;;;;139.85;11.90;;;7.80;99.90;;;;;;5080208;28;20043;-90
2022/11/29 02:13:05;;;;;;;180.27;14.38;;;7.70;99.90;;;;;;5063017;28;20039;-89
2022/11/29 02:15:34;;;;;;;110.95;11.60;;;7.70;99.90;;;;;;5095876;28;20051;-90
2022/11/29 02:18:13;;;;;;;191.45;14.25;;;7.60;99.90;;;;;;5095805;28;20040;-89
2022/11/29 02:20:55;;;;;;;212.05;13.43;;;7.70;99.90;;;;;;5095668;28;20075;-90
2022/11/29 02:23:40;;;;;;;160.35;12.43;;;7.70;99.90;;;;;;5095619;28;20079;-90
2022/11/29 02:26:40;;;;;;;257.88;15.43;;;7.70;99.90;;;;;;5095298;28;20411;-90
2022/11/29 02:29:22;;;;;;;132.75;12.52;;;7.70;99.90;;;;;;5095591;28;20054;-90
2022/11/29 02:32:14;;;;;;;131.55;11.45;;;7.70;99.90;;;;;;5095115;28;20039;-89
2022/11/29 02:34:51;;;;;;;122.97;11.52;;;7.70;99.90;;;;;;5095235;28;20510;-89
2022/11/29 02:37:26;;;;;;;84.50;10.18;;;7.60;99.90;;;;;;5094918;28;20051;-90
2022/11/29 02:40:08;;;;;;;116.75;11.77;;;7.70;99.90;;;;;;5097670;28;20089;-90
2022/11/29 02:42:53;;;;;;;140.38;11.73;;;7.60;99.90;;;;;;5112136;28;20051;-90
2022/11/29 02:45:42;;;;;;;215.10;14.43;;;7.60;99.90;;;;;;5095397;28;20066;-88
2022/11/29 02:49:00;;;;;;;81.80;9.32;;;7.70;99.90;;;;;;5094940;28;20835;-90
2022/11/29 02:51:46;;;;;;;72.95;9.07;;;7.70;99.90;;;;;;5072438;28;20052;-89
2022/11/29 02:54:20;;;;;;;108.15;11.27;;;7.60;99.90;;;;;;5094473;28;20420;-90
2022/11/29 02:57:00;;;;;;;101.57;11.60;;;7.70;99.90;;;;;;5094422;28;20068;-89
2022/11/29 02:59:49;;;;;;;123.30;11.80;;;7.60;99.90;;;;;;5111346;28;20416;-89
2022/11/29 03:02:27;;;;;;;113.55;11.52;;;7.70;99.90;;;;;;5094961;28;20051;-90
2022/11/29 03:04:56;;;;;;;80.20;10.13;;;7.70;99.90;;;;;;5094598;28;20499;-89
2022/11/29 03:07:44;;;;;;;90.07;11.02;;;7.60;99.90;;;;;;5094698;28;20036;-90
2022/11/29 03:10:31;;;;;;;67.53;9.18;;;7.60;99.90;;;;;;5095404;28;20036;-90
2022/11/29 03:13:01;;;;;;;99.68;11.23;;;7.60;99.90;;;;;;5111612;28;20043;-89
2022/11/29 03:15:37;;;;;;;88.03;9.82;;;7.60;99.90;;;;;;5094669;28;20036;-89
2022/11/29 03:18:31;;;;;;;101.28;12.35;;;7.60;99.90;;;;;;5095002;28;20058;-89
2022/11/29 03:21:16;;;;;;;134.63;11.20;;;7.60;99.90;;;;;;5091196;28;20113;-90
2022/11/29 03:23:53;;;;;;;102.20;10.45;;;7.60;99.90;;;;;;5074159;28;20063;-85
2022/11/29 03:26:30;;;;;;;101.30;10.88;;;7.60;99.90;;;;;;5074363;28;20072;-89
2022/11/29 03:29:18;;;;;;;103.63;11.30;;;7.60;99.90;;;;;;5078766;28;20072;-89
2022/11/29 03:32:03;;;;;;;130.60;11.23;;;7.60;99.90;;;;;;5111471;28;20040;-87
2022/11/29 03:34:51;;;;;;;189.27;12.98;;;7.60;99.90;;;;;;5121505;28;20047;-90
2022/11/29 03:37:24;;;;;;;124.18;11.02;;;7.60;99.90;;;;;;5094423;28;20115;-90
2022/11/29 03:39:58;;;;;;;151.82;11.93;;;7.60;99.90;;;;;;5110943;28;20086;-90
2022/11/29 03:42:50;;;;;;;85.75;11.18;;;7.60;99.90;;;;;;5094468;28;20036;-90
2022/11/29 03:45:23;;;;;;;110.07;11.60;;;7.60;99.90;;;;;;5092992;28;20052;-90
2022/11/29 03:48:04;;;;;;;86.03;10.95;;;7.60;99.90;;;;;;5094088;28;20036;-89
2022/11/29 03:50:41;;;;;;;96.40;10.20;;;7.60;99.90;;;;;;5095527;28;20430;-90
2022/11/29 03:53:19;;;;;;;112.93;11.60;;;7.60;99.90;;;;;;5094221;28;20040;-90
2022/11/29 03:55:48;;;;;;;129.63;10.88;;;7.60;99.90;;;;;;5110691;28;20466;-90
2022/11/29 03:58:33;;;;;;;94.53;10.77;;;7.60;99.90;;;;;;5094434;28;20051;-89
2022/11/29 04:01:20;;;;;;;135.88;11.38;;;7.60;99.90;;;;;;5093752;28;20036;-90
2022/11/29 04:04:05;;;;;;;112.55;10.85;;;7.60;99.90;;;;;;5110689;28;20039;-90
2022/11/29 04:06:59;;;;;;;98.70;10.63;;;7.60;99.90;;;;;;5094200;28;20043;-90
2022/11/29 04:09:38;;;;;;;96.72;11.30;;;7.60;99.90;;;;;;5093994;28;20460;-90
2022/11/29 04:12:26;;;;;;;78.95;10.45;;;7.50;99.90;;;;;;5111029;28;20048;-90
2022/11/29 04:15:11;;;;;;;94.53;11.18;;;7.60;99.90;;;;;;5110412;28;20484;-90
2022/11/29 04:18:00;;;;;;;103.85;11.80;;;7.60;99.90;;;;;;5093630;28;20491;-90
2022/11/29 04:21:04;;;;;;;79.07;10.30;;;7.50;99.90;;;;;;5094139;28;20039;-91
2022/11/29 04:23:55;;;;;;;72.78;10.45;;;7.60;99.90;;;;;;5094422;28;20036;-91
2022/11/29 04:26:44;;;;;;;57.95;9.27;;;7.50;99.90;;;;;;5093637;28;20488;-89
2022/11/29 04:29:19;;;;;;;78.93;10.40;;;7.50;99.90;;;;;;5110208;28;20492;-89
2022/11/29 04:31:58;;;;;;;59.63;9.82;;;7.50;99.90;;;;;;5094193;28;20044;-89
2022/11/29 04:34:52;;;;;;;54.67;8.85;;;7.50;99.90;;;;;;5093846;28;20484;-89
2022/11/29 04:37:40;;;;;;;66.35;10.18;;;7.50;99.90;;;;;;5093443;28;20043;-90
2022/11/29 04:40:39;;;;;;;73.55;9.63;;;7.50;99.90;;;;;;5110356;28;20043;-89
2022/11/29 04:44:02;;;;;;;51.70;8.40;;;7.50;99.90;;;;;;5093411;28;20456;-89
2022/11/29 04:46:54;;;;;;;72.22;8.77;;;7.50;99.90;;;;;;5009941;28;20050;-89
2022/11/29 04:49:52;;;;;;;63.13;9.00;;;7.60;99.90;;;;;;5009277;28;20137;-88
2022/11/29 04:52:43;;;;;;;71.18;10.07;;;7.50;99.90;;;;;;5079725;28;20048;-89
2022/11/29 04:55:32;;;;;;;53.90;9.80;;;7.50;99.90;;;;;;5093830;28;20040;-89
2022/11/29 04:58:26;;;;;;;63.58;9.73;;;7.50;99.90;;;;;;5096846;28;20780;-88
2022/11/29 05:01:02;;;;;;;49.63;8.95;;;7.50;99.90;;;;;;5097555;28;20043;-89
2022/11/29 05:03:44;;;;;;;71.35;9.57;;;7.50;99.90;;;;;;5097244;28;20051;-89
2022/11/29 05:06:22;;;;;;;51.60;8.98;;;7.50;99.90;;;;;;5097275;28;20083;-90
2022/11/29 05:09:27;;;;;;;61.80;9.90;;;7.50;99.90;;;;;;5097886;28;20083;-88
2022/11/29 05:12:12;;;;;;;54.95;8.35;;;7.50;99.90;;;;;;5014347;28;20038;-89
2022/11/29 05:15:13;;;;;;;37.35;7.88;;;7.50;99.90;;;;;;4997329;28;20045;-90
2022/11/29 05:18:02;;;;;;;46.03;8.07;;;7.50;99.90;;;;;;5080896;28;20518;-90
2022/11/29 05:21:17;;;;;;;46.70;8.40;;;7.50;99.90;;;;;;5113400;28;20046;-89
2022/11/29 05:23:55;;;;;;;41.80;8.65;;;7.50;99.90;;;;;;5079680;28;20064;-89
2022/11/29 05:26:30;;;;;;;46.17;8.35;;;7.50;99.90;;;;;;5113530;28;20085;-90
2022/11/29 05:29:10;;;;;;;48.03;8.00;;;7.50;99.90;;;;;;5096409;28;20533;-89
2022/11/29 05:31:51;;;;;;;38.72;8.07;;;7.50;99.90;;;;;;5097340;28;20085;-89
2022/11/29 05:34:32;;;;;;;42.88;8.23;;;7.50;99.90;;;;;;5097070;28;20173;-90
2022/11/29 05:37:08;;;;;;;50.13;8.50;;;7.40;99.90;;;;;;5096393;28;20036;-89
2022/11/29 05:39:43;;;;;;;;;;;7.40;99.90;;;;;;5096771;28;20089;-89
2022/11/29 05:42:19;;;;;;;37.75;8.32;;;7.40;99.90;;;;;;5095683;28;19959;-89
2022/11/29 05:45:15;;;;;;;38.22;7.80;;;7.40;99.90;;;;;;5096425;28;20044;-89
2022/11/29 05:47:51;;;;;;;41.53;7.70;;;7.40;99.90;;;;;;5089342;28;20055;-90
2022/11/29 05:50:27;;;;;;;62.13;9.00;;;7.40;99.90;;;;;;5112539;28;20036;-89
2022/11/29 05:53:11;;;;;;;36.00;8.15;;;7.40;99.90;;;;;;5096181;28;20040;-90
2022/11/29 05:56:07;;;;;;;36.13;7.68;;;7.30;99.90;;;;;;5112448;28;20032;-90
2022/11/29 05:58:43;;;;;;;32.15;8.18;;;7.30;99.90;;;;;;5096466;28;20043;-91
2022/11/29 06:01:20;;;;;;;41.67;8.93;;;7.30;99.90;;;;;;5096435;28;20131;-89
2022/11/29 06:03:54;;;;;;;30.75;8.45;;;7.40;99.90;;;;;;5099754;28;20085;-90
2022/11/29 06:06:38;;;;;;;34.90;8.13;;;7.30;99.90;;;;;;5096790;28;20040;-90
2022/11/29 06:09:18;;;;;;;31.50;7.55;;;7.30;99.90;;;;;;5096112;28;20752;-90
2022/11/29 06:11:53;;;;;;;38.47;7.68;;;7.30;99.90;;;;;;5096411;28;20078;-90
2022/11/29 06:14:43;;;;;;;36.67;8.60;;;7.20;99.90;;;;;;5095601;28;20445;-91
2022/11/29 06:17:33;;;;;;;36.80;9.05;;;7.20;99.90;;;;;;5112266;28;20040;-85
2022/11/29 06:20:37;;;;;;;36.78;7.85;;;7.30;99.90;;;;;;5095727;28;20043;-90
2022/11/29 06:23:40;;;;;;;47.10;9.15;;;7.30;99.90;;;;;;5112539;28;20495;-89
2022/11/29 06:26:28;;;;;;;33.67;8.27;;;7.20;99.90;;;;;;5095882;28;20507;-90
2022/11/29 06:29:01;;;;;;;52.53;9.32;;;7.20;99.90;;;;;;5095659;28;20079;-90
2022/11/29 06:31:36;;;;;;;31.30;7.90;;;7.20;99.90;;;;;;5112880;28;20075;-92
2022/11/29 06:34:10;;;;;;;52.60;9.85;;;7.20;99.90;;;;;;5112502;28;20051;-89
2022/11/29 06:36:59;;;;;;;36.75;9.48;;;7.20;99.90;;;;;;5095455;28;20051;-90
2022/11/29 06:39:26;;;;;;;47.08;8.93;;;7.20;99.90;;;;;;5095631;28;20054;-92
2022/11/29 06:41:52;;;;;;;55.80;9.35;;;7.20;99.90;;;;;;5095919;28;20381;-91
2022/11/29 06:44:20;;;;;;;26.17;7.72;;;7.20;99.90;;;;;;5078709;28;20104;-91
2022/11/29 06:47:09;;;;;;;43.72;8.68;;;7.20;99.90;;;;;;5094912;28;20066;-92
2022/11/29 06:49:51;;;;;;;55.63;9.57;;;7.10;99.90;;;;;;5111537;28;20067;-91
2022/11/29 06:52:53;;;;;;;40.72;8.95;;;7.10;99.90;;;;;;5111621;28;20043;-91
2022/11/29 06:55:38;;;;;;;41.17;9.05;;;7.10;99.90;;;;;;5095350;28;20917;-90
2022/11/29 06:58:14;;;;;;;38.63;9.63;;;7.10;99.90;;;;;;5095015;28;20480;-90
2022/11/29 07:00:59;;;;;;;42.40;8.48;;;7.10;99.90;;;;;;5102806;28;20036;-91
2022/11/29 07:03:43;;;;;;;36.20;8.27;;;7.10;99.90;;;;;;5118037;28;20043;-91
2022/11/29 07:06:22;;;;;;;27.50;8.45;;;7.10;99.90;;;;;;5105053;28;20490;-91
2022/11/29 07:09:03;;;;;;;31.25;8.63;;;7.10;99.90;;;;;;5096877;28;20036;-92
2022/11/29 07:11:30;;;;;;;32.70;8.35;;;7.10;99.90;;;;;;5113589;28;20047;-91
2022/11/29 07:13:57;;;;;;;36.50;8.45;;;7.10;99.90;;;;;;5095233;28;20039;-90
2022/11/29 07:16:38;;;;;;;38.70;9.27;;;7.10;99.90;;;;;;5082477;28;20067;-91
2022/11/29 07:19:11;;;;;;;29.00;7.97;;;7.00;99.90;;;;;;5098709;28;20431;-90
2022/11/29 07:21:56;;;;;;;28.67;8.70;;;7.10;99.90;;;;;;5094704;28;20046;-91
2022/11/29 07:24:26;;;;;;;32.20;8.80;;;7.00;99.90;;;;;;5100136;28;20517;-90
2022/11/29 07:27:01;;;;;;;25.67;8.75;;;7.00;99.90;;;;;;5116521;28;20102;-92
2022/11/29 07:30:01;;;;;;;31.13;8.40;;;7.00;99.90;;;;;;5094224;28;20063;-91
2022/11/29 07:32:46;;;;;;;26.30;7.40;;;7.00;99.90;;;;;;5094410;28;20545;-91
2022/11/29 07:35:52;;;;;;;27.27;7.80;;;7.00;99.90;;;;;;5074342;28;20040;-92
2022/11/29 07:38:57;;;;;;;21.35;7.70;;;6.90;99.90;;;;;;5075173;28;20029;-92
2022/11/29 07:41:49;;;;;;;27.90;7.85;;;6.90;99.90;;;;;;5085225;28;20043;-92
2022/11/29 07:44:38;;;;;;;27.42;7.82;;;6.90;99.90;;;;;;5064336;28;20056;-93
2022/11/29 07:47:07;;;;;;;28.35;7.22;;;6.90;99.90;;;;;;5095579;28;20127;-93
2022/11/29 07:49:37;;;;;;;22.98;7.30;;;6.90;99.90;;;;;;5125749;28;20040;-93
2022/11/29 07:52:04;;;;;;;33.13;7.85;;;7.00;99.90;;;;;;5079155;28;20036;-92
2022/11/29 07:54:30;;;;;;;30.15;7.63;;;6.90;99.90;;;;;;5063018;28;20032;-93
2022/11/29 07:56:57;;;;;;;26.50;8.40;;;6.90;99.90;;;;;;5062661;28;20048;-93
2022/11/29 07:59:24;;;;;;;25.15;7.15;;;6.90;99.90;;;;;;5078988;28;20047;-91
2022/11/29 08:01:50;;;;;;;20.15;7.43;;;6.90;99.90;;;;;;5078666;28;20127;-93
2022/11/29 08:04:17;;;;;;;27.90;7.75;;;6.90;99.90;;;;;;5055423;28;20047;-93
2022/11/29 08:06:44;;;;;;;26.45;8.02;;;7.00;99.90;;;;;;5048724;28;20443;-92
2022/11/29 08:09:10;;;;;;;28.80;8.10;;;6.90;99.90;;;;;;5064054;28;20489;-93
2022/11/29 08:11:38;;;;;;;24.17;7.43;;;7.00;99.90;;;;;;5085390;28;20483;-91
2022/11/29 08:14:05;;;;;;;19.70;7.35;;;7.00;99.90;;;;;;5096423;28;20031;-90
2022/11/29 08:16:32;;;;;;;22.92;7.13;;;7.00;99.90;;;;;;5064500;28;20549;-91
2022/11/29 08:18:59;;;;;;;28.20;7.85;;;7.00;99.90;;;;;;5094199;28;20054;-91
2022/11/29 08:21:26;;;;;;;26.20;7.93;;;7.00;99.90;;;;;;5094057;28;20036;-90
2022/11/29 08:23:53;;;;;;;25.00;7.50;;;7.00;99.90;;;;;;5075784;28;20039;-89
2022/11/29 08:26:20;;;;;;;23.42;7.18;;;7.10;99.90;;;;;;5076851;28;20040;-87
2022/11/29 08:28:51;;;;;;;28.02;8.40;;;7.10;99.90;;;;;;5060310;28;20519;-89
2022/11/29 08:31:19;;;;;;;25.50;8.35;;;7.00;99.90;;;;;;5096417;28;20036;-90
2022/11/29 08:33:46;;;;;;;28.77;7.72;;;7.10;99.90;;;;;;5100361;28;20047;-90
2022/11/29 08:36:16;;;;;;;31.88;7.85;;;7.10;99.90;;;;;;5097949;28;20428;-89
2022/11/29 08:38:43;;;;;;;29.08;8.57;;;7.20;99.90;;;;;;5098015;28;20070;-89
2022/11/29 08:41:12;;;;;;;27.48;8.00;;;7.10;99.90;;;;;;5110001;28;20064;-89
2022/11/29 08:43:40;;;;;;;20.65;7.05;;;7.20;99.90;;;;;;5096466;28;20039;-88
2022/11/29 08:46:06;;;;;;;30.58;7.88;;;7.20;99.90;;;;;;5098168;28;20044;-87
2022/11/29 08:48:34;;;;;;;23.58;6.95;;;7.20;99.90;;;;;;5097422;28;20031;-88
2022/11/29 08:51:01;;;;;;;32.47;7.70;;;7.20;99.90;;;;;;5102942;28;20043;-89
2022/11/29 08:53:40;;;;;;;26.63;8.20;;;7.30;99.90;;;;;;5097222;28;20502;-88
2022/11/29 08:56:13;;;;;;;22.67;8.27;;;7.30;99.90;;;;;;5097692;28;20052;-88
2022/11/29 08:58:40;;;;;;;30.25;8.02;;;7.30;99.90;;;;;;5113619;28;20114;-89
2022/11/29 09:01:17;;;;;;;26.58;7.63;;;7.30;99.90;;;;;;5081061;28;20063;-89
2022/11/29 09:04:03;;;;;;;21.33;7.05;;;7.30;99.90;;;;;;5090072;28;20081;-88
2022/11/29 09:06:37;;;;;;;;;;;7.30;99.90;;;;;;5114091;28;20040;-90
2022/11/29 09:09:04;;;;;;;24.65;7.28;;;7.40;99.90;;;;;;5093076;28;20580;-90
2022/11/29 09:11:33;;;;;;;24.90;8.75;;;7.40;99.90;;;;;;5079437;28;20036;-89
2022/11/29 09:14:03;;;;;;;21.55;8.32;;;7.50;99.90;;;;;;5096703;28;20074;-88
2022/11/29 09:16:33;;;;;;;29.88;8.55;;;7.60;99.90;;;;;;5113737;28;20036;-88
2022/11/29 09:19:00;;;;;;;25.75;8.77;;;7.40;99.90;;;;;;5091626;28;20036;-87
2022/11/29 09:21:29;;;;;;;22.95;7.28;;;7.50;99.90;;;;;;5063927;28;20078;-90
2022/11/29 09:23:59;;;;;;;18.55;6.75;;;7.50;99.90;;;;;;5089664;28;20369;-89
2022/11/29 09:26:28;;;;;;;23.30;7.65;;;7.50;99.90;;;;;;5076400;28;20407;-88
2022/11/29 09:28:57;;;;;;;29.27;7.85;;;7.50;99.90;;;;;;5088590;28;20039;-90
2022/11/29 09:31:25;;;;;;;22.35;7.07;;;7.60;99.90;;;;;;5082766;28;20047;-88
2022/11/29 09:33:54;;;;;;;22.80;6.65;;;7.60;99.90;;;;;;5063552;28;20039;-89
2022/11/29 09:36:21;;;;;;;23.98;6.80;;;7.60;99.90;;;;;;5097054;28;20076;-90
2022/11/29 09:38:47;;;;;;;14.95;6.65;;;7.60;99.90;;;;;;5079623;28;20086;-89
2022/11/29 09:41:33;;;;;;;19.85;7.10;;;7.60;99.90;;;;;;5113359;28;20052;-89
2022/11/29 09:44:03;;;;;;;19.83;7.03;;;7.60;99.90;;;;;;5095734;28;20036;-90
2022/11/29 09:46:41;;;;;;;21.88;6.90;;;7.70;99.90;;;;;;5112753;28;20047;-90
2022/11/29 09:49:36;;;;;;;24.33;6.32;;;7.60;99.90;;;;;;5097083;28;20040;-89
2022/11/29 09:52:21;;;;;;;19.05;6.30;;;7.60;99.90;;;;;;5090278;28;20496;-89
2022/11/29 09:55:06;;;;;;;20.58;6.35;;;7.70;99.90;;;;;;5094185;28;20468;-88
2022/11/29 09:57:33;;;;;;;19.52;6.55;;;7.70;99.90;;;;;;5117431;28;20047;-89
2022/11/29 10:00:14;;;;;;;22.90;6.60;;;7.70;99.90;;;;;;5074488;28;20040;-93
2022/11/29 10:02:46;;;;;;;17.40;7.00;;;7.70;99.90;;;;;;5090521;28;20048;-90
2022/11/29 10:05:21;;;;;;;15.07;6.72;;;7.60;99.90;;;;;;5096356;28;20032;-89
2022/11/29 10:07:55;;;;;;;15.30;6.60;;;7.90;99.90;;;;;;5094303;28;20039;-88
2022/11/29 10:10:36;;;;;;;15.30;5.90;;;7.70;99.90;;;;;;5095732;28;20044;-90
2022/11/29 10:13:14;;;;;;;21.83;6.38;;;7.70;99.90;;;;;;5096039;28;20518;-90
2022/11/29 10:15:45;;;;;;;27.42;7.05;;;7.70;99.90;;;;;;5113512;28;20044;-88
2022/11/29 10:18:19;;;;;;;21.60;6.95;;;7.70;99.90;;;;;;5095938;28;20047;-90
2022/11/29 10:20:50;;;;;;;17.75;5.97;;;7.70;99.90;;;;;;5095804;28;20062;-89
2022/11/29 10:23:28;;;;;;;20.92;6.88;;;7.70;99.90;;;;;;5091120;28;20091;-90
2022/11/29 10:25:56;;;;;;;15.73;5.80;;;7.70;99.90;;;;;;5076423;28;20041;-89
2022/11/29 10:28:30;;;;;;;23.15;5.68;;;7.80;99.90;;;;;;5076334;28;20097;-85
2022/11/29 10:31:12;;;;;;;17.83;5.68;;;7.80;99.90;;;;;;5086976;28;20653;-89
2022/11/29 10:33:40;;;;;;;15.68;6.18;;;7.80;99.90;;;;;;5083451;28;20033;-88
2022/11/29 10:36:26;;;;;;;15.40;5.93;;;7.90;99.90;;;;;;5093786;28;20047;-90
2022/11/29 10:39:00;;;;;;;17.58;6.28;;;7.80;99.90;;;;;;5111120;28;20036;-91
2022/11/29 10:41:27;;;;;;;12.30;5.43;;;7.90;99.90;;;;;;5111746;28;20500;-92
2022/11/29 10:43:58;;;;;;;18.80;5.57;;;7.90;99.90;;;;;;5062236;28;20032;-89
2022/11/29 10:46:33;;;;;;;19.38;5.80;;;7.90;99.90;;;;;;5105577;28;20488;-89
2022/11/29 10:49:09;;;;;;;20.73;6.63;;;8.00;99.90;;;;;;5112342;28;20119;-91
2022/11/29 10:51:36;;;;;;;17.77;5.63;;;8.00;99.90;;;;;;5102472;28;20127;-90
2022/11/29 10:54:21;;;;;;;13.20;4.97;;;8.00;99.90;;;;;;5078547;28;20078;-90
2022/11/29 10:56:47;;;;;;;18.52;6.25;;;8.00;99.90;;;;;;5096206;28;20087;-90
2022/11/29 10:59:24;;;;;;;20.17;6.43;;;8.10;99.90;;;;;;5112517;28;20048;-89
2022/11/29 11:01:53;;;;;;;20.17;6.07;;;8.10;99.90;;;;;;5125702;28;20039;-90
2022/11/29 11:04:43;;;;;;;17.23;6.45;;;8.20;99.90;;;;;;5076388;28;20115;-90
2022/11/29 11:07:22;;;;;;;18.23;5.45;;;8.20;99.90;;;;;;5094898;28;20072;-88
2022/11/29 11:09:52;;;;;;;17.63;5.38;;;8.20;99.90;;;;;;5095967;28;20136;-89
2022/11/29 11:12:23;;;;;;;17.83;6.20;;;8.20;99.90;;;;;;5095471;28;20036;-90
2022/11/29 11:14:50;;;;;;;16.27;6.13;;;8.30;99.90;;;;;;5111523;28;20563;-89
2022/11/29 11:17:31;;;;;;;21.98;6.75;;;8.20;99.90;;;;;;5062318;28;20035;-89
2022/11/29 11:19:59;;;;;;;17.08;6.07;;;8.30;99.90;;;;;;5094487;28;20083;-89
2022/11/29 11:22:27;;;;;;;14.32;5.75;;;8.30;99.90;;;;;;5094502;28;20071;-87
2022/11/29 11:25:26;;;;;;;15.15;6.25;;;8.20;99.90;;;;;;5094918;28;20468;-87
2022/11/29 11:27:54;;;;;;;18.90;6.57;;;8.30;99.90;;;;;;5103170;28;20078;-89
2022/11/29 11:30:24;;;;;;;18.65;6.38;;;8.30;99.90;;;;;;5080297;28;20042;-89
2022/11/29 11:33:18;;;;;;;21.35;6.30;;;8.30;99.90;;;;;;5111120;28;20504;-89
2022/11/29 11:36:02;;;;;;;18.92;6.30;;;8.30;99.90;;;;;;5078998;28;20130;-88
2022/11/29 11:38:29;;;;;;;15.85;5.95;;;8.30;99.90;;;;;;5110863;28;20032;-89
2022/11/29 11:41:03;;;;;;;17.48;6.47;;;8.30;99.90;;;;;;5093927;28;20048;-89
2022/11/29 11:43:31;;;;;;;15.82;6.80;;;8.30;99.90;;;;;;5094230;28;20036;-90
2022/11/29 11:45:57;;;;;;;16.13;6.20;;;8.30;99.90;;;;;;5093721;28;20027;-89
2022/11/29 11:48:24;;;;;;;15.82;6.85;;;8.30;99.90;;;;;;5085358;28;20050;-87
2022/11/29 11:50:57;;;;;;;14.27;5.82;;;8.20;99.90;;;;;;5090415;28;20090;-89
2022/11/29 11:53:34;;;;;;;15.80;6.82;;;8.30;99.90;;;;;;5090535;28;20076;-89
2022/11/29 11:56:09;;;;;;;16.55;7.28;;;8.20;99.90;;;;;;5082668;28;20044;-89
2022/11/29 11:58:52;;;;;;;18.33;6.35;;;8.20;99.90;;;;;;5090092;28;20086;-90
2022/11/29 12:01:29;;;;;;;14.57;6.10;;;8.20;99.90;;;;;;5090580;28;20040;-90
2022/11/29 12:04:05;;;;;;;17.92;6.07;;;8.20;99.90;;;;;;5074781;28;20044;-90
2022/11/29 12:06:53;;;;;;;15.55;6.25;;;8.10;99.90;;;;;;5119427;28;20037;-90
2022/11/29 12:09:42;;;;;;;20.00;7.60;;;8.10;99.90;;;;;;5078486;28;20059;-90
2022/11/29 12:12:31;;;;;;;17.33;6.63;;;8.10;99.90;;;;;;5074431;28;20036;-90
2022/11/29 12:15:02;;;;;;;15.45;6.85;;;8.10;99.90;;;;;;5091717;28;20123;-91
2022/11/29 12:17:47;;;;;;;17.65;7.32;;;8.20;99.90;;;;;;5076117;28;20050;-91
2022/11/29 12:20:25;;;;;;;16.42;6.82;;;8.10;99.90;;;;;;5075803;28;20045;-92
2022/11/29 12:23:01;;;;;;;15.25;6.28;;;8.10;99.90;;;;;;5074674;28;20036;-84
2022/11/29 12:25:30;;;;;;;;;;;8.10;99.90;;;;;;5093363;28;20047;-92
2022/11/29 12:27:57;;;;;;;15.77;6.05;;;8.10;99.90;;;;;;5087359;28;19923;-92
2022/11/29 12:30:24;;;;;;;15.13;6.05;;;8.10;99.90;;;;;;5039642;28;20498;-88
2022/11/29 12:33:17;;;;;;;18.67;6.07;;;8.10;99.90;;;;;;5040113;28;20041;-92
2022/11/29 12:35:56;;;;;;;17.15;6.25;;;8.10;99.90;;;;;;5075979;28;20033;-92
2022/11/29 12:38:47;;;;;;;16.20;5.70;;;8.10;99.90;;;;;;5076672;28;20064;-93
2022/11/29 12:41:26;;;;;;;13.38;6.68;;;8.10;99.90;;;;;;5076131;28;20075;-91
2022/11/29 12:44:18;;;;;;;12.38;5.60;;;8.10;99.90;;;;;;5080845;28;20028;-91
2022/11/29 12:47:09;;;;;;;14.48;6.03;;;8.10;99.90;;;;;;5113249;28;20097;-91
2022/11/29 12:49:59;;;;;;;14.25;6.15;;;8.00;99.90;;;;;;5077599;28;20420;-91
2022/11/29 12:52:49;;;;;;;16.25;6.05;;;8.00;99.90;;;;;;5076221;28;20036;-88
2022/11/29 12:55:31;;;;;;;14.55;5.90;;;8.10;99.90;;;;;;5064184;28;20033;-91
2022/11/29 12:58:21;;;;;;;16.63;5.97;;;8.00;99.90;;;;;;5071397;28;20083;-91
2022/11/29 13:01:18;;;;;;;18.30;7.03;;;8.20;99.90;;;;;;5088208;28;20044;-92
2022/11/29 13:04:14;;;;;;;16.98;6.55;;;7.90;99.90;;;;;;5113164;28;20503;-91
2022/11/29 13:06:54;;;;;;;20.45;6.63;;;7.90;99.90;;;;;;5075572;28;20033;-92
2022/11/29 13:09:23;;;;;;;17.75;6.22;;;7.90;99.90;;;;;;5077054;28;20079;-91
2022/11/29 13:12:16;;;;;;;17.48;7.38;;;7.90;99.90;;;;;;5094396;28;20033;-90
2022/11/29 13:15:08;;;;;;;18.55;6.07;;;7.80;99.90;;;;;;5068448;28;20190;-91
2022/11/29 13:18:12;;;;;;;18.52;6.72;;;7.80;99.90;;;;;;5067148;28;20068;-90
2022/11/29 13:20:50;;;;;;;15.05;5.82;;;7.80;99.90;;;;;;5060844;28;20090;-90
2022/11/29 13:23:41;;;;;;;22.98;6.95;;;7.70;99.90;;;;;;5077123;28;20041;-90
2022/11/29 13:26:11;;;;;;;20.08;7.43;;;7.80;99.90;;;;;;5077052;28;20055;-90
2022/11/29 13:28:41;;;;;;;15.90;6.68;;;7.80;99.90;;;;;;5077113;28;20097;-90
2022/11/29 13:31:16;;;;;;;25.25;7.80;;;7.70;99.90;;;;;;5070620;28;20045;-90
2022/11/29 13:34:02;;;;;;;;;;;7.60;99.90;;;;;;5068736;28;20036;-90
2022/11/29 13:37:11;;;;;;;22.95;8.05;;;7.60;99.90;;;;;;5073688;28;19917;-89